sensor_id;sensor_type;location;lat;lon;timestamp;P1;durP1;ratioP1;P2;durP2;ratioP2
60675;SDS011;46716;38.014;-7.874;2022-08-02T00:01:04;10.00;;;4.85;;
60675;SDS011;46716;38.014;-7.874;2022-08-02T00:03:05;11.38;;;4.70;;
60675;SDS011;46716;38.014;-7.874;2022-08-02T00:05:06;9.82;;;4.18;;
60675;SDS011;46716;38.014;-7.874;2022-08-02T00:07:07;12.57;;;5.03;;
60675;SDS011;46716;38.014;-7.874;2022-08-02T00:09:08;13.10;;;4.78;;
60675;SDS011;46716;38.014;-7.874;2022-08-02T00:11:09;13.45;;;5.55;;
60675;SDS011;46716;38.014;-7.874;2022-08-02T00:13:10;10.68;;;4.55;;
60675;SDS011;46716;38.014;-7.874;2022-08-02T00:15:11;10.90;;;4.45;;
60675;SDS011;46716;38.014;-7.874;2022-08-02T00:17:13;17.15;;;6.25;;
60675;SDS011;46716;38.014;-7.874;2022-08-02T00:19:14;12.50;;;5.30;;
60675;SDS011;46716;38.014;-7.874;2022-08-02T00:21:15;18.85;;;6.05;;
60675;SDS011;46716;38.014;-7.874;2022-08-02T00:23:16;12.07;;;6.13;;
60675;SDS011;46716;38.014;-7.874;2022-08-02T00:25:17;10.00;;;5.65;;
60675;SDS011;46716;38.014;-7.874;2022-08-02T00:27:18;15.30;;;7.40;;
60675;SDS011;46716;38.014;-7.874;2022-08-02T00:29:19;14.68;;;7.72;;
60675;SDS011;46716;38.014;-7.874;2022-08-02T00:31:20;14.07;;;7.68;;
60675;SDS011;46716;38.014;-7.874;2022-08-02T00:33:21;19.95;;;9.50;;
60675;SDS011;46716;38.014;-7.874;2022-08-02T00:35:22;18.02;;;9.55;;
60675;SDS011;46716;38.014;-7.874;2022-08-02T00:37:23;16.20;;;9.63;;
60675;SDS011;46716;38.014;-7.874;2022-08-02T00:39:24;18.73;;;9.90;;
60675;SDS011;46716;38.014;-7.874;2022-08-02T00:41:25;21.83;;;11.15;;
60675;SDS011;46716;38.014;-7.874;2022-08-02T00:43:26;21.40;;;10.73;;
60675;SDS011;46716;38.014;-7.874;2022-08-02T00:45:26;20.70;;;11.07;;
60675;SDS011;46716;38.014;-7.874;2022-08-02T00:47:27;24.55;;;11.00;;
60675;SDS011;46716;38.014;-7.874;2022-08-02T00:49:28;19.80;;;10.57;;
60675;SDS011;46716;38.014;-7.874;2022-08-02T00:51:29;17.30;;;11.25;;
60675;SDS011;46716;38.014;-7.874;2022-08-02T00:53:30;22.15;;;11.52;;
60675;SDS011;46716;38.014;-7.874;2022-08-02T00:55:31;15.48;;;10.70;;
60675;SDS011;46716;38.014;-7.874;2022-08-02T00:57:32;19.27;;;11.40;;
60675;SDS011;46716;38.014;-7.874;2022-08-02T00:59:33;17.90;;;10.68;;
60675;SDS011;46716;38.014;-7.874;2022-08-02T01:01:34;16.15;;;10.50;;
60675;SDS011;46716;38.014;-7.874;2022-08-02T01:03:38;19.92;;;10.63;;
60675;SDS011;46716;38.014;-7.874;2022-08-02T01:05:39;17.02;;;9.80;;
60675;SDS011;46716;38.014;-7.874;2022-08-02T01:07:40;17.65;;;9.98;;
60675;SDS011;46716;38.014;-7.874;2022-08-02T01:09:41;15.82;;;9.55;;
60675;SDS011;46716;38.014;-7.874;2022-08-02T01:11:43;14.77;;;8.93;;
60675;SDS011;46716;38.014;-7.874;2022-08-02T01:13:44;18.38;;;10.25;;
60675;SDS011;46716;38.014;-7.874;2022-08-02T01:15:46;19.17;;;9.77;;
60675;SDS011;46716;38.014;-7.874;2022-08-02T01:17:58;15.50;;;9.48;;
60675;SDS011;46716;38.014;-7.874;2022-08-02T01:24:39;14.07;;;8.82;;
60675;SDS011;46716;38.014;-7.874;2022-08-02T01:27:14;16.30;;;8.48;;
60675;SDS011;46716;38.014;-7.874;2022-08-02T01:29:28;16.90;;;8.57;;
60675;SDS011;46716;38.014;-7.874;2022-08-02T01:31:35;14.35;;;8.18;;
60675;SDS011;46716;38.014;-7.874;2022-08-02T01:33:51;14.52;;;7.65;;
60675;SDS011;46716;38.014;-7.874;2022-08-02T01:36:00;16.77;;;7.88;;
60675;SDS011;46716;38.014;-7.874;2022-08-02T01:38:06;18.33;;;7.53;;
60675;SDS011;46716;38.014;-7.874;2022-08-02T01:40:33;11.15;;;6.97;;
60675;SDS011;46716;38.014;-7.874;2022-08-02T01:42:37;15.18;;;7.68;;
60675;SDS011;46716;38.014;-7.874;2022-08-02T01:44:42;15.05;;;8.02;;
60675;SDS011;46716;38.014;-7.874;2022-08-02T01:46:46;14.70;;;7.53;;
60675;SDS011;46716;38.014;-7.874;2022-08-02T01:48:48;17.92;;;7.78;;
60675;SDS011;46716;38.014;-7.874;2022-08-02T01:50:53;17.45;;;8.40;;
60675;SDS011;46716;38.014;-7.874;2022-08-02T01:52:55;13.88;;;8.35;;
60675;SDS011;46716;38.014;-7.874;2022-08-02T01:57:00;16.00;;;8.30;;
60675;SDS011;46716;38.014;-7.874;2022-08-02T01:59:04;15.57;;;9.15;;
60675;SDS011;46716;38.014;-7.874;2022-08-02T02:01:10;16.05;;;8.35;;
60675;SDS011;46716;38.014;-7.874;2022-08-02T02:03:21;17.15;;;8.90;;
60675;SDS011;46716;38.014;-7.874;2022-08-02T02:05:24;15.82;;;8.85;;
60675;SDS011;46716;38.014;-7.874;2022-08-02T02:07:29;19.73;;;9.25;;
60675;SDS011;46716;38.014;-7.874;2022-08-02T02:09:34;15.65;;;8.60;;
60675;SDS011;46716;38.014;-7.874;2022-08-02T02:11:39;14.20;;;9.30;;
60675;SDS011;46716;38.014;-7.874;2022-08-02T02:13:45;14.52;;;8.57;;
60675;SDS011;46716;38.014;-7.874;2022-08-02T02:15:48;19.23;;;7.50;;
60675;SDS011;46716;38.014;-7.874;2022-08-02T02:17:51;14.50;;;8.10;;
60675;SDS011;46716;38.014;-7.874;2022-08-02T02:19:54;15.55;;;8.32;;
60675;SDS011;46716;38.014;-7.874;2022-08-02T02:21:58;15.38;;;8.25;;
60675;SDS011;46716;38.014;-7.874;2022-08-02T02:24:01;15.52;;;8.27;;
60675;SDS011;46716;38.014;-7.874;2022-08-02T02:26:03;17.92;;;8.88;;
60675;SDS011;46716;38.014;-7.874;2022-08-02T02:28:07;17.83;;;9.90;;
60675;SDS011;46716;38.014;-7.874;2022-08-02T02:30:11;15.52;;;9.23;;
60675;SDS011;46716;38.014;-7.874;2022-08-02T02:32:13;16.77;;;9.55;;
60675;SDS011;46716;38.014;-7.874;2022-08-02T02:34:17;21.05;;;10.43;;
60675;SDS011;46716;38.014;-7.874;2022-08-02T02:36:25;19.25;;;10.60;;
60675;SDS011;46716;38.014;-7.874;2022-08-02T02:38:29;17.20;;;9.48;;
60675;SDS011;46716;38.014;-7.874;2022-08-02T02:40:31;16.63;;;9.98;;
60675;SDS011;46716;38.014;-7.874;2022-08-02T02:42:33;19.30;;;11.20;;
60675;SDS011;46716;38.014;-7.874;2022-08-02T02:44:37;17.92;;;10.20;;
60675;SDS011;46716;38.014;-7.874;2022-08-02T02:46:40;15.63;;;9.68;;
60675;SDS011;46716;38.014;-7.874;2022-08-02T02:48:42;18.27;;;9.93;;
60675;SDS011;46716;38.014;-7.874;2022-08-02T02:50:43;16.95;;;9.50;;
60675;SDS011;46716;38.014;-7.874;2022-08-02T02:52:45;17.65;;;8.90;;
60675;SDS011;46716;38.014;-7.874;2022-08-02T02:54:47;23.00;;;8.85;;
60675;SDS011;46716;38.014;-7.874;2022-08-02T02:56:50;18.60;;;8.57;;
60675;SDS011;46716;38.014;-7.874;2022-08-02T02:58:53;18.88;;;9.68;;
60675;SDS011;46716;38.014;-7.874;2022-08-02T03:00:54;20.50;;;9.57;;
60675;SDS011;46716;38.014;-7.874;2022-08-02T03:03:14;19.38;;;9.45;;
60675;SDS011;46716;38.014;-7.874;2022-08-02T03:05:17;25.20;;;11.07;;
60675;SDS011;46716;38.014;-7.874;2022-08-02T03:07:18;21.95;;;10.02;;
60675;SDS011;46716;38.014;-7.874;2022-08-02T03:09:19;25.85;;;10.73;;
60675;SDS011;46716;38.014;-7.874;2022-08-02T03:11:20;22.25;;;11.70;;
60675;SDS011;46716;38.014;-7.874;2022-08-02T03:13:22;21.88;;;11.20;;
60675;SDS011;46716;38.014;-7.874;2022-08-02T03:15:24;19.83;;;11.30;;
60675;SDS011;46716;38.014;-7.874;2022-08-02T03:17:36;21.10;;;11.07;;
60675;SDS011;46716;38.014;-7.874;2022-08-02T03:19:38;25.55;;;10.38;;
60675;SDS011;46716;38.014;-7.874;2022-08-02T03:21:40;23.60;;;11.05;;
60675;SDS011;46716;38.014;-7.874;2022-08-02T03:23:45;18.77;;;10.00;;
60675;SDS011;46716;38.014;-7.874;2022-08-02T03:25:46;24.70;;;10.43;;
60675;SDS011;46716;38.014;-7.874;2022-08-02T03:27:47;18.48;;;10.00;;
60675;SDS011;46716;38.014;-7.874;2022-08-02T03:29:48;24.05;;;10.35;;
60675;SDS011;46716;38.014;-7.874;2022-08-02T03:31:49;25.65;;;10.95;;
60675;SDS011;46716;38.014;-7.874;2022-08-02T03:33:51;23.52;;;10.48;;
60675;SDS011;46716;38.014;-7.874;2022-08-02T03:35:55;21.95;;;10.27;;
60675;SDS011;46716;38.014;-7.874;2022-08-02T03:37:58;23.52;;;10.75;;
60675;SDS011;46716;38.014;-7.874;2022-08-02T03:40:00;17.05;;;9.82;;
60675;SDS011;46716;38.014;-7.874;2022-08-02T03:42:02;19.52;;;11.00;;
60675;SDS011;46716;38.014;-7.874;2022-08-02T03:44:03;22.60;;;10.93;;
60675;SDS011;46716;38.014;-7.874;2022-08-02T03:46:06;24.55;;;10.35;;
60675;SDS011;46716;38.014;-7.874;2022-08-02T03:48:09;25.83;;;11.80;;
60675;SDS011;46716;38.014;-7.874;2022-08-02T03:50:12;20.92;;;11.10;;
60675;SDS011;46716;38.014;-7.874;2022-08-02T03:52:13;24.48;;;12.48;;
60675;SDS011;46716;38.014;-7.874;2022-08-02T03:54:16;22.77;;;10.35;;
60675;SDS011;46716;38.014;-7.874;2022-08-02T03:58:22;19.55;;;11.57;;
60675;SDS011;46716;38.014;-7.874;2022-08-02T04:00:24;22.83;;;10.77;;
60675;SDS011;46716;38.014;-7.874;2022-08-02T04:02:25;25.08;;;12.13;;
60675;SDS011;46716;38.014;-7.874;2022-08-02T04:04:26;19.02;;;10.73;;
60675;SDS011;46716;38.014;-7.874;2022-08-02T04:06:28;26.65;;;11.43;;
60675;SDS011;46716;38.014;-7.874;2022-08-02T04:08:28;24.52;;;10.73;;
60675;SDS011;46716;38.014;-7.874;2022-08-02T04:10:29;29.80;;;11.85;;
60675;SDS011;46716;38.014;-7.874;2022-08-02T04:12:31;22.73;;;11.68;;
60675;SDS011;46716;38.014;-7.874;2022-08-02T04:14:32;26.17;;;12.05;;
60675;SDS011;46716;38.014;-7.874;2022-08-02T04:18:54;19.00;;;11.43;;
60675;SDS011;46716;38.014;-7.874;2022-08-02T04:20:57;28.27;;;11.05;;
60675;SDS011;46716;38.014;-7.874;2022-08-02T04:23:05;22.05;;;11.70;;
60675;SDS011;46716;38.014;-7.874;2022-08-02T04:25:08;23.08;;;11.93;;
60675;SDS011;46716;38.014;-7.874;2022-08-02T04:27:10;21.75;;;12.30;;
60675;SDS011;46716;38.014;-7.874;2022-08-02T04:29:12;18.10;;;11.48;;
60675;SDS011;46716;38.014;-7.874;2022-08-02T04:31:15;19.25;;;11.07;;
60675;SDS011;46716;38.014;-7.874;2022-08-02T04:33:17;31.25;;;13.60;;
60675;SDS011;46716;38.014;-7.874;2022-08-02T04:35:19;23.45;;;11.82;;
60675;SDS011;46716;38.014;-7.874;2022-08-02T04:37:20;22.27;;;10.95;;
60675;SDS011;46716;38.014;-7.874;2022-08-02T04:39:21;30.10;;;12.05;;
60675;SDS011;46716;38.014;-7.874;2022-08-02T04:41:22;18.52;;;10.00;;
60675;SDS011;46716;38.014;-7.874;2022-08-02T04:43:23;18.98;;;9.05;;
60675;SDS011;46716;38.014;-7.874;2022-08-02T04:45:24;16.30;;;10.15;;
60675;SDS011;46716;38.014;-7.874;2022-08-02T04:47:26;16.67;;;10.05;;
60675;SDS011;46716;38.014;-7.874;2022-08-02T04:49:30;20.33;;;10.48;;
60675;SDS011;46716;38.014;-7.874;2022-08-02T04:51:34;21.08;;;11.25;;
60675;SDS011;46716;38.014;-7.874;2022-08-02T04:53:36;20.13;;;11.15;;
60675;SDS011;46716;38.014;-7.874;2022-08-02T04:55:37;23.13;;;11.90;;
60675;SDS011;46716;38.014;-7.874;2022-08-02T04:57:38;23.83;;;12.38;;
60675;SDS011;46716;38.014;-7.874;2022-08-02T04:59:54;21.88;;;12.05;;
60675;SDS011;46716;38.014;-7.874;2022-08-02T05:01:55;25.08;;;13.35;;
60675;SDS011;46716;38.014;-7.874;2022-08-02T05:03:56;22.40;;;13.75;;
60675;SDS011;46716;38.014;-7.874;2022-08-02T05:05:57;23.38;;;13.82;;
60675;SDS011;46716;38.014;-7.874;2022-08-02T05:10:00;24.17;;;14.05;;
60675;SDS011;46716;38.014;-7.874;2022-08-02T05:12:01;29.95;;;14.85;;
60675;SDS011;46716;38.014;-7.874;2022-08-02T05:14:03;24.10;;;14.73;;
60675;SDS011;46716;38.014;-7.874;2022-08-02T05:16:04;23.55;;;14.48;;
60675;SDS011;46716;38.014;-7.874;2022-08-02T05:18:05;22.98;;;13.00;;
60675;SDS011;46716;38.014;-7.874;2022-08-02T05:20:06;23.45;;;13.85;;
60675;SDS011;46716;38.014;-7.874;2022-08-02T05:22:07;28.98;;;14.15;;
60675;SDS011;46716;38.014;-7.874;2022-08-02T05:24:08;23.30;;;14.27;;
60675;SDS011;46716;38.014;-7.874;2022-08-02T05:26:09;20.92;;;14.30;;
60675;SDS011;46716;38.014;-7.874;2022-08-02T05:28:10;21.75;;;14.40;;
60675;SDS011;46716;38.014;-7.874;2022-08-02T05:30:11;25.08;;;14.23;;
60675;SDS011;46716;38.014;-7.874;2022-08-02T05:32:12;29.20;;;15.10;;
60675;SDS011;46716;38.014;-7.874;2022-08-02T05:34:13;23.25;;;13.70;;
60675;SDS011;46716;38.014;-7.874;2022-08-02T05:36:14;23.13;;;14.32;;
60675;SDS011;46716;38.014;-7.874;2022-08-02T05:38:15;23.40;;;14.43;;
60675;SDS011;46716;38.014;-7.874;2022-08-02T05:40:16;25.15;;;14.10;;
60675;SDS011;46716;38.014;-7.874;2022-08-02T05:42:20;24.63;;;14.32;;
60675;SDS011;46716;38.014;-7.874;2022-08-02T05:44:21;28.45;;;14.95;;
60675;SDS011;46716;38.014;-7.874;2022-08-02T05:46:22;26.45;;;14.70;;
60675;SDS011;46716;38.014;-7.874;2022-08-02T05:50:25;37.85;;;14.85;;
60675;SDS011;46716;38.014;-7.874;2022-08-02T05:52:30;26.08;;;15.30;;
60675;SDS011;46716;38.014;-7.874;2022-08-02T05:55:02;27.80;;;14.50;;
60675;SDS011;46716;38.014;-7.874;2022-08-02T05:59:29;27.27;;;15.50;;
60675;SDS011;46716;38.014;-7.874;2022-08-02T06:01:32;23.77;;;14.38;;
60675;SDS011;46716;38.014;-7.874;2022-08-02T06:03:38;31.02;;;14.82;;
60675;SDS011;46716;38.014;-7.874;2022-08-02T06:05:47;25.52;;;14.05;;
60675;SDS011;46716;38.014;-7.874;2022-08-02T06:07:49;26.20;;;15.10;;
60675;SDS011;46716;38.014;-7.874;2022-08-02T06:09:51;25.08;;;15.07;;
60675;SDS011;46716;38.014;-7.874;2022-08-02T06:11:53;25.50;;;14.52;;
60675;SDS011;46716;38.014;-7.874;2022-08-02T06:13:58;25.77;;;15.75;;
60675;SDS011;46716;38.014;-7.874;2022-08-02T06:15:59;21.40;;;13.82;;
60675;SDS011;46716;38.014;-7.874;2022-08-02T06:18:01;23.80;;;14.25;;
60675;SDS011;46716;38.014;-7.874;2022-08-02T06:20:03;23.27;;;13.65;;
60675;SDS011;46716;38.014;-7.874;2022-08-02T06:22:05;27.35;;;14.80;;
60675;SDS011;46716;38.014;-7.874;2022-08-02T06:24:16;26.65;;;13.23;;
60675;SDS011;46716;38.014;-7.874;2022-08-02T06:28:20;23.27;;;13.13;;
60675;SDS011;46716;38.014;-7.874;2022-08-02T06:32:23;22.15;;;11.90;;
60675;SDS011;46716;38.014;-7.874;2022-08-02T06:34:26;24.63;;;12.63;;
60675;SDS011;46716;38.014;-7.874;2022-08-02T06:36:40;20.17;;;12.30;;
60675;SDS011;46716;38.014;-7.874;2022-08-02T06:38:53;24.50;;;12.55;;
60675;SDS011;46716;38.014;-7.874;2022-08-02T06:41:04;25.55;;;13.68;;
60675;SDS011;46716;38.014;-7.874;2022-08-02T06:43:12;22.30;;;12.20;;
60675;SDS011;46716;38.014;-7.874;2022-08-02T06:45:27;24.65;;;12.05;;
60675;SDS011;46716;38.014;-7.874;2022-08-02T06:47:28;24.67;;;11.85;;
60675;SDS011;46716;38.014;-7.874;2022-08-02T06:49:29;22.42;;;12.68;;
60675;SDS011;46716;38.014;-7.874;2022-08-02T06:51:30;21.08;;;11.95;;
60675;SDS011;46716;38.014;-7.874;2022-08-02T06:55:33;20.13;;;12.05;;
60675;SDS011;46716;38.014;-7.874;2022-08-02T06:57:35;30.10;;;12.33;;
60675;SDS011;46716;38.014;-7.874;2022-08-02T06:59:36;23.77;;;12.13;;
60675;SDS011;46716;38.014;-7.874;2022-08-02T07:01:37;19.92;;;12.13;;
60675;SDS011;46716;38.014;-7.874;2022-08-02T07:03:39;22.58;;;12.82;;
60675;SDS011;46716;38.014;-7.874;2022-08-02T07:05:40;24.60;;;12.93;;
60675;SDS011;46716;38.014;-7.874;2022-08-02T07:07:41;26.70;;;13.23;;
60675;SDS011;46716;38.014;-7.874;2022-08-02T07:09:42;20.67;;;11.55;;
60675;SDS011;46716;38.014;-7.874;2022-08-02T07:11:43;23.83;;;12.10;;
60675;SDS011;46716;38.014;-7.874;2022-08-02T07:13:44;18.77;;;12.23;;
60675;SDS011;46716;38.014;-7.874;2022-08-02T07:15:45;22.00;;;12.13;;
60675;SDS011;46716;38.014;-7.874;2022-08-02T07:17:46;19.58;;;12.02;;
60675;SDS011;46716;38.014;-7.874;2022-08-02T07:19:47;20.40;;;12.18;;
60675;SDS011;46716;38.014;-7.874;2022-08-02T07:21:48;22.05;;;12.70;;
60675;SDS011;46716;38.014;-7.874;2022-08-02T07:23:48;22.05;;;13.23;;
60675;SDS011;46716;38.014;-7.874;2022-08-02T07:25:49;20.20;;;12.02;;
60675;SDS011;46716;38.014;-7.874;2022-08-02T07:27:50;23.30;;;12.82;;
60675;SDS011;46716;38.014;-7.874;2022-08-02T07:29:51;23.25;;;11.70;;
60675;SDS011;46716;38.014;-7.874;2022-08-02T07:31:53;25.23;;;12.40;;
60675;SDS011;46716;38.014;-7.874;2022-08-02T07:33:54;19.67;;;11.40;;
60675;SDS011;46716;38.014;-7.874;2022-08-02T07:35:55;23.60;;;11.35;;
60675;SDS011;46716;38.014;-7.874;2022-08-02T07:37:57;18.05;;;11.23;;
60675;SDS011;46716;38.014;-7.874;2022-08-02T07:39:58;25.98;;;11.70;;
60675;SDS011;46716;38.014;-7.874;2022-08-02T07:41:59;23.77;;;11.65;;
60675;SDS011;46716;38.014;-7.874;2022-08-02T07:44:00;19.60;;;11.52;;
60675;SDS011;46716;38.014;-7.874;2022-08-02T07:46:01;23.02;;;12.00;;
60675;SDS011;46716;38.014;-7.874;2022-08-02T07:48:02;20.55;;;11.88;;
60675;SDS011;46716;38.014;-7.874;2022-08-02T07:50:04;21.65;;;11.40;;
60675;SDS011;46716;38.014;-7.874;2022-08-02T07:52:06;18.05;;;10.75;;
60675;SDS011;46716;38.014;-7.874;2022-08-02T07:54:07;20.52;;;11.82;;
60675;SDS011;46716;38.014;-7.874;2022-08-02T07:56:08;23.33;;;11.50;;
60675;SDS011;46716;38.014;-7.874;2022-08-02T07:58:09;24.63;;;12.13;;
60675;SDS011;46716;38.014;-7.874;2022-08-02T08:00:10;25.20;;;12.45;;
60675;SDS011;46716;38.014;-7.874;2022-08-02T08:02:11;19.60;;;11.75;;
60675;SDS011;46716;38.014;-7.874;2022-08-02T08:04:16;24.63;;;12.00;;
60675;SDS011;46716;38.014;-7.874;2022-08-02T08:06:17;24.38;;;12.40;;
60675;SDS011;46716;38.014;-7.874;2022-08-02T08:08:18;23.25;;;12.13;;
60675;SDS011;46716;38.014;-7.874;2022-08-02T08:10:20;21.47;;;11.67;;
60675;SDS011;46716;38.014;-7.874;2022-08-02T08:12:20;20.80;;;11.63;;
60675;SDS011;46716;38.014;-7.874;2022-08-02T08:14:21;17.92;;;11.20;;
60675;SDS011;46716;38.014;-7.874;2022-08-02T08:16:22;18.67;;;11.68;;
60675;SDS011;46716;38.014;-7.874;2022-08-02T08:18:25;25.58;;;11.68;;
60675;SDS011;46716;38.014;-7.874;2022-08-02T08:20:26;18.13;;;11.55;;
60675;SDS011;46716;38.014;-7.874;2022-08-02T08:22:27;17.45;;;11.10;;
60675;SDS011;46716;38.014;-7.874;2022-08-02T08:24:28;18.83;;;11.05;;
60675;SDS011;46716;38.014;-7.874;2022-08-02T08:26:29;20.98;;;11.75;;
60675;SDS011;46716;38.014;-7.874;2022-08-02T08:28:30;20.95;;;11.15;;
60675;SDS011;46716;38.014;-7.874;2022-08-02T08:30:31;20.10;;;11.43;;
60675;SDS011;46716;38.014;-7.874;2022-08-02T08:32:32;22.63;;;10.15;;
60675;SDS011;46716;38.014;-7.874;2022-08-02T08:34:33;17.27;;;10.52;;
60675;SDS011;46716;38.014;-7.874;2022-08-02T08:36:34;21.00;;;9.40;;
60675;SDS011;46716;38.014;-7.874;2022-08-02T08:38:37;18.27;;;10.30;;
60675;SDS011;46716;38.014;-7.874;2022-08-02T08:40:38;21.38;;;10.27;;
60675;SDS011;46716;38.014;-7.874;2022-08-02T08:42:41;14.55;;;9.23;;
60675;SDS011;46716;38.014;-7.874;2022-08-02T08:44:42;18.73;;;10.05;;
60675;SDS011;46716;38.014;-7.874;2022-08-02T08:48:47;14.95;;;9.57;;
60675;SDS011;46716;38.014;-7.874;2022-08-02T08:51:00;14.75;;;8.45;;
60675;SDS011;46716;38.014;-7.874;2022-08-02T08:53:06;17.40;;;9.20;;
60675;SDS011;46716;38.014;-7.874;2022-08-02T08:55:09;17.13;;;8.98;;
60675;SDS011;46716;38.014;-7.874;2022-08-02T08:57:13;19.88;;;10.30;;
60675;SDS011;46716;38.014;-7.874;2022-08-02T08:59:16;19.38;;;10.23;;
60675;SDS011;46716;38.014;-7.874;2022-08-02T09:01:17;14.10;;;8.82;;
60675;SDS011;46716;38.014;-7.874;2022-08-02T09:03:18;15.18;;;8.63;;
60675;SDS011;46716;38.014;-7.874;2022-08-02T09:05:20;19.85;;;9.07;;
60675;SDS011;46716;38.014;-7.874;2022-08-02T09:07:21;15.93;;;8.93;;
60675;SDS011;46716;38.014;-7.874;2022-08-02T09:09:22;15.10;;;9.32;;
60675;SDS011;46716;38.014;-7.874;2022-08-02T09:11:24;22.75;;;9.82;;
60675;SDS011;46716;38.014;-7.874;2022-08-02T09:13:26;17.73;;;10.45;;
60675;SDS011;46716;38.014;-7.874;2022-08-02T09:15:31;19.20;;;9.52;;
60675;SDS011;46716;38.014;-7.874;2022-08-02T09:17:32;14.07;;;8.75;;
60675;SDS011;46716;38.014;-7.874;2022-08-02T09:19:33;24.27;;;9.32;;
60675;SDS011;46716;38.014;-7.874;2022-08-02T09:21:36;18.75;;;8.30;;
60675;SDS011;46716;38.014;-7.874;2022-08-02T09:23:40;15.43;;;9.38;;
60675;SDS011;46716;38.014;-7.874;2022-08-02T09:25:45;14.40;;;9.23;;
60675;SDS011;46716;38.014;-7.874;2022-08-02T09:28:01;17.73;;;7.40;;
60675;SDS011;46716;38.014;-7.874;2022-08-02T09:30:05;11.65;;;7.50;;
60675;SDS011;46716;38.014;-7.874;2022-08-02T09:32:12;13.82;;;7.60;;
60675;SDS011;46716;38.014;-7.874;2022-08-02T09:34:15;12.98;;;7.18;;
60675;SDS011;46716;38.014;-7.874;2022-08-02T09:36:17;15.13;;;7.10;;
60675;SDS011;46716;38.014;-7.874;2022-08-02T09:38:18;11.55;;;7.68;;
60675;SDS011;46716;38.014;-7.874;2022-08-02T09:40:21;15.05;;;7.18;;
60675;SDS011;46716;38.014;-7.874;2022-08-02T09:42:35;13.45;;;7.72;;
60675;SDS011;46716;38.014;-7.874;2022-08-02T09:44:35;12.27;;;7.07;;
60675;SDS011;46716;38.014;-7.874;2022-08-02T09:46:40;14.37;;;7.43;;
60675;SDS011;46716;38.014;-7.874;2022-08-02T09:48:46;12.02;;;7.43;;
60675;SDS011;46716;38.014;-7.874;2022-08-02T09:51:01;14.85;;;7.55;;
60675;SDS011;46716;38.014;-7.874;2022-08-02T09:53:02;15.03;;;7.93;;
60675;SDS011;46716;38.014;-7.874;2022-08-02T09:55:04;14.90;;;7.30;;
60675;SDS011;46716;38.014;-7.874;2022-08-02T09:57:05;13.27;;;7.13;;
60675;SDS011;46716;38.014;-7.874;2022-08-02T09:59:06;11.45;;;6.35;;
60675;SDS011;46716;38.014;-7.874;2022-08-02T10:01:08;17.75;;;7.47;;
60675;SDS011;46716;38.014;-7.874;2022-08-02T10:03:10;12.63;;;7.50;;
60675;SDS011;46716;38.014;-7.874;2022-08-02T10:05:11;13.43;;;7.63;;
60675;SDS011;46716;38.014;-7.874;2022-08-02T10:07:12;14.23;;;5.97;;
60675;SDS011;46716;38.014;-7.874;2022-08-02T10:09:13;16.80;;;8.32;;
60675;SDS011;46716;38.014;-7.874;2022-08-02T10:13:16;13.98;;;7.35;;
60675;SDS011;46716;38.014;-7.874;2022-08-02T10:15:17;10.80;;;6.90;;
60675;SDS011;46716;38.014;-7.874;2022-08-02T10:17:19;12.07;;;7.10;;
60675;SDS011;46716;38.014;-7.874;2022-08-02T10:19:20;12.63;;;6.50;;
60675;SDS011;46716;38.014;-7.874;2022-08-02T10:21:22;13.88;;;7.57;;
60675;SDS011;46716;38.014;-7.874;2022-08-02T10:23:31;13.05;;;6.88;;
60675;SDS011;46716;38.014;-7.874;2022-08-02T10:25:36;14.38;;;6.88;;
60675;SDS011;46716;38.014;-7.874;2022-08-02T10:27:38;12.73;;;7.05;;
60675;SDS011;46716;38.014;-7.874;2022-08-02T10:29:41;16.50;;;7.43;;
60675;SDS011;46716;38.014;-7.874;2022-08-02T10:32:01;11.73;;;6.50;;
60675;SDS011;46716;38.014;-7.874;2022-08-02T10:34:10;9.73;;;6.25;;
60675;SDS011;46716;38.014;-7.874;2022-08-02T10:36:14;12.52;;;6.97;;
60675;SDS011;46716;38.014;-7.874;2022-08-02T10:38:15;12.65;;;6.35;;
60675;SDS011;46716;38.014;-7.874;2022-08-02T10:40:18;14.50;;;6.43;;
60675;SDS011;46716;38.014;-7.874;2022-08-02T10:43:04;14.00;;;6.45;;
60675;SDS011;46716;38.014;-7.874;2022-08-02T10:44:47;10.82;;;6.07;;
60675;SDS011;46716;38.014;-7.874;2022-08-02T10:49:18;11.35;;;6.13;;
60675;SDS011;46716;38.014;-7.874;2022-08-02T10:51:20;11.27;;;5.93;;
60675;SDS011;46716;38.014;-7.874;2022-08-02T10:53:27;11.00;;;6.23;;
60675;SDS011;46716;38.014;-7.874;2022-08-02T10:55:43;10.80;;;6.13;;
60675;SDS011;46716;38.014;-7.874;2022-08-02T10:57:44;9.57;;;4.93;;
60675;SDS011;46716;38.014;-7.874;2022-08-02T10:59:45;10.60;;;5.17;;
60675;SDS011;46716;38.014;-7.874;2022-08-02T11:01:48;7.80;;;4.57;;
60675;SDS011;46716;38.014;-7.874;2022-08-02T11:03:49;12.33;;;4.50;;
60675;SDS011;46716;38.014;-7.874;2022-08-02T11:06:02;9.07;;;4.80;;
60675;SDS011;46716;38.014;-7.874;2022-08-02T11:08:18;8.98;;;4.50;;
60675;SDS011;46716;38.014;-7.874;2022-08-02T11:10:36;11.88;;;4.47;;
60675;SDS011;46716;38.014;-7.874;2022-08-02T11:12:57;9.80;;;5.60;;
60675;SDS011;46716;38.014;-7.874;2022-08-02T11:15:00;7.13;;;3.45;;
60675;SDS011;46716;38.014;-7.874;2022-08-02T11:17:04;7.80;;;4.20;;
60675;SDS011;46716;38.014;-7.874;2022-08-02T11:19:06;6.70;;;4.13;;
60675;SDS011;46716;38.014;-7.874;2022-08-02T11:21:29;8.17;;;4.40;;
60675;SDS011;46716;38.014;-7.874;2022-08-02T11:23:33;12.18;;;3.58;;
60675;SDS011;46716;38.014;-7.874;2022-08-02T11:25:37;9.07;;;4.20;;
60675;SDS011;46716;38.014;-7.874;2022-08-02T11:27:38;8.18;;;4.15;;
60675;SDS011;46716;38.014;-7.874;2022-08-02T11:29:41;11.73;;;4.70;;
60675;SDS011;46716;38.014;-7.874;2022-08-02T11:31:45;11.10;;;4.45;;
60675;SDS011;46716;38.014;-7.874;2022-08-02T11:33:50;9.25;;;4.38;;
60675;SDS011;46716;38.014;-7.874;2022-08-02T11:35:51;8.93;;;3.88;;
60675;SDS011;46716;38.014;-7.874;2022-08-02T11:37:53;13.52;;;4.25;;
60675;SDS011;46716;38.014;-7.874;2022-08-02T11:39:53;10.13;;;4.53;;
60675;SDS011;46716;38.014;-7.874;2022-08-02T11:41:55;11.17;;;4.10;;
60675;SDS011;46716;38.014;-7.874;2022-08-02T11:43:58;7.18;;;3.97;;
60675;SDS011;46716;38.014;-7.874;2022-08-02T11:46:01;8.85;;;3.95;;
60675;SDS011;46716;38.014;-7.874;2022-08-02T11:48:03;8.60;;;4.22;;
60675;SDS011;46716;38.014;-7.874;2022-08-02T11:50:05;8.00;;;4.07;;
60675;SDS011;46716;38.014;-7.874;2022-08-02T11:52:11;10.70;;;3.53;;
60675;SDS011;46716;38.014;-7.874;2022-08-02T11:54:12;7.95;;;3.92;;
60675;SDS011;46716;38.014;-7.874;2022-08-02T11:56:27;8.60;;;3.70;;
60675;SDS011;46716;38.014;-7.874;2022-08-02T11:58:29;8.48;;;3.30;;
60675;SDS011;46716;38.014;-7.874;2022-08-02T12:00:30;9.82;;;3.88;;
60675;SDS011;46716;38.014;-7.874;2022-08-02T12:02:31;7.70;;;3.72;;
60675;SDS011;46716;38.014;-7.874;2022-08-02T12:04:33;10.60;;;4.00;;
60675;SDS011;46716;38.014;-7.874;2022-08-02T12:06:35;11.57;;;4.10;;
60675;SDS011;46716;38.014;-7.874;2022-08-02T12:08:36;8.93;;;3.58;;
60675;SDS011;46716;38.014;-7.874;2022-08-02T12:10:38;10.02;;;3.60;;
60675;SDS011;46716;38.014;-7.874;2022-08-02T12:12:51;7.53;;;3.85;;
60675;SDS011;46716;38.014;-7.874;2022-08-02T12:14:55;6.78;;;3.60;;
60675;SDS011;46716;38.014;-7.874;2022-08-02T12:16:56;10.38;;;3.58;;
60675;SDS011;46716;38.014;-7.874;2022-08-02T12:19:16;7.28;;;3.67;;
60675;SDS011;46716;38.014;-7.874;2022-08-02T12:23:23;5.32;;;3.03;;
60675;SDS011;46716;38.014;-7.874;2022-08-02T12:25:25;9.27;;;3.20;;
60675;SDS011;46716;38.014;-7.874;2022-08-02T12:29:38;9.18;;;3.65;;
60675;SDS011;46716;38.014;-7.874;2022-08-02T12:31:43;8.15;;;3.83;;